Time;durP1;ratioP1;P1;durP2;ratioP2;P2;SDS_P1;SDS_P2;PMS_P1;PMS_P2;Temp;Humidity;BMP_temperature;BMP_pressure;BME280_temperature;BME280_humidity;BME280_pressure;Samples;Min_cycle;Max_cycle;Signal;HPM_P1;HPM_P2
2022/07/11 00:00:01;;;;;;;6.17;2.23;;;;;;;12.57;89.24;102210.25;5092679;28;20181;-71
2022/07/11 00:02:26;;;;;;;5.23;2.50;;;;;;;12.58;89.64;102210.31;5092641;28;20576;-70
2022/07/11 00:04:52;;;;;;;8.97;2.87;;;;;;;12.57;89.94;102210.25;5074345;28;20193;-70
2022/07/11 00:07:17;;;;;;;3.43;2.03;;;;;;;12.57;90.47;102211.16;5092300;28;20204;-69
2022/07/11 00:09:43;;;;;;;7.13;2.30;;;;;;;12.57;89.98;102208.59;5092599;28;20184;-70
2022/07/11 00:12:11;;;;;;;8.93;2.23;;;;;;;12.54;89.86;102210.19;5092361;28;20205;-70
2022/07/11 00:14:39;;;;;;;6.07;2.40;;;;;;;12.52;89.85;102206.66;5074159;28;20708;-70
2022/07/11 00:17:07;;;;;;;5.10;2.17;;;;;;;12.50;89.96;102204.03;5091963;28;20212;-70
2022/07/11 00:19:32;;;;;;;5.70;2.00;;;;;;;12.46;89.81;102203.91;5092303;28;20173;-71
2022/07/11 00:21:58;;;;;;;5.17;2.03;;;;;;;12.40;89.41;102207.13;5091353;28;20576;-70
2022/07/11 00:24:24;;;;;;;7.70;2.43;;;;;;;12.36;89.38;102201.84;5086292;28;20188;-70
2022/07/11 00:26:50;;;;;;;6.53;2.10;;;;;;;12.33;89.58;102194.91;5112262;28;20184;-70
2022/07/11 00:29:16;;;;;;;6.20;2.10;;;;;;;12.30;89.17;102199.94;5099735;28;20199;-70
2022/07/11 00:31:42;;;;;;;6.87;2.40;;;;;;;12.28;88.86;102198.16;5092064;28;20178;-70
2022/07/11 00:34:07;;;;;;;5.97;2.10;;;;;;;12.28;88.88;102203.28;5092286;28;20180;-70
2022/07/11 00:36:33;;;;;;;4.80;1.90;;;;;;;12.29;89.04;102205.03;5090676;28;20184;-71
2022/07/11 00:38:59;;;;;;;7.03;2.00;;;;;;;12.28;89.46;102203.28;5097801;28;20273;-70
2022/07/11 00:41:24;;;;;;;4.53;2.07;;;;;;;12.27;89.61;102194.72;5112908;28;20184;-70
2022/07/11 00:43:58;;;;;;;2.73;2.10;;;;;;;12.21;89.19;102209.06;5081861;28;20256;-70
2022/07/11 00:46:25;;;;;;;5.47;1.80;;;;;;;12.18;89.18;102206.34;5092095;28;20191;-70
2022/07/11 00:48:52;;;;;;;4.10;2.03;;;;;;;12.14;89.22;102201.94;5092232;28;20196;-70
2022/07/11 00:51:21;;;;;;;6.13;2.20;;;;;;;12.02;89.57;102201.50;5091382;28;20181;-70
2022/07/11 00:53:52;;;;;;;3.37;1.80;;;;;;;11.93;88.82;102203.78;5092251;28;20557;-70
2022/07/11 00:56:26;;;;;;;7.50;2.30;;;;;;;11.92;88.58;102200.31;5091746;28;20188;-70
2022/07/11 00:58:54;;;;;;;5.63;2.17;;;;;;;11.85;88.46;102207.75;5073292;28;20295;-70
2022/07/11 01:01:20;;;;;;;4.03;2.10;;;;;;;11.79;88.86;102203.25;5087600;28;20670;-70
2022/07/11 01:03:46;;;;;;;4.60;2.03;;;;;;;11.72;88.45;102208.13;5072086;28;20189;-70
2022/07/11 01:06:11;;;;;;;5.20;2.43;;;;;;;11.72;88.46;102205.53;5054089;28;20213;-70
2022/07/11 01:08:38;;;;;;;8.67;2.17;;;;;;;11.70;88.50;102197.78;5071532;28;20213;-70
2022/07/11 01:11:05;;;;;;;5.33;2.00;;;;;;;11.63;88.29;102200.06;5071888;28;20518;-71
2022/07/11 01:13:31;;;;;;;3.17;1.67;;;;;;;11.57;88.80;102192.97;5071714;28;20177;-70
2022/07/11 01:16:09;;;;;;;2.07;1.87;;;;;;;11.50;88.87;102196.16;5071396;28;20687;-70
2022/07/11 01:18:34;;;;;;;2.63;1.90;;;;;;;11.62;88.41;102199.19;5091122;28;20239;-70
2022/07/11 01:21:00;;;;;;;3.73;1.80;;;;;;;11.58;88.87;102202.44;5090055;28;20658;-70
2022/07/11 01:23:26;;;;;;;4.90;1.93;;;;;;;11.65;89.33;102201.88;5090868;28;20256;-70
2022/07/11 01:25:51;;;;;;;1.93;1.77;;;;;;;11.59;89.19;102201.66;5091119;28;20184;-70
2022/07/11 01:28:17;;;;;;;4.93;1.93;;;;;;;11.57;88.90;102203.25;5090443;28;20296;-70
2022/07/11 01:30:42;;;;;;;5.10;1.80;;;;;;;11.56;89.30;102198.94;5091429;28;20196;-70
2022/07/11 01:33:08;;;;;;;4.00;2.10;;;;;;;11.56;89.70;102196.38;5091069;28;20601;-70
2022/07/11 01:35:33;;;;;;;3.33;1.93;;;;;;;11.62;90.32;102199.19;5090689;28;20188;-70
2022/07/11 01:37:59;;;;;;;4.83;1.90;;;;;;;11.66;90.41;102198.50;5090629;28;20261;-70
2022/07/11 01:40:24;;;;;;;5.53;2.20;;;;;;;11.75;91.09;102192.84;5090866;28;20212;-70
2022/07/11 01:42:50;;;;;;;7.50;2.23;;;;;;;11.82;91.73;102198.25;5090805;28;20674;-70
2022/07/11 01:45:15;;;;;;;2.77;2.00;;;;;;;11.88;92.37;102195.88;5072630;28;20655;-70
2022/07/11 01:47:40;;;;;;;6.20;2.23;;;;;;;11.93;93.20;102193.50;5090264;28;20212;-70
2022/07/11 01:50:06;;;;;;;6.47;2.30;;;;;;;11.97;93.61;102182.50;5091109;28;20180;-71
2022/07/11 01:52:32;;;;;;;4.27;2.20;;;;;;;12.00;94.33;102183.50;5090703;28;20189;-70
2022/07/11 01:54:58;;;;;;;5.87;2.30;;;;;;;12.03;94.80;102188.72;5090993;28;20177;-70
2022/07/11 01:57:23;;;;;;;4.30;2.30;;;;;;;12.07;95.03;102189.72;5083917;28;20737;-70
2022/07/11 01:59:49;;;;;;;5.70;2.00;;;;;;;12.10;95.57;102192.38;5084568;28;20188;-70
2022/07/11 02:02:15;;;;;;;5.07;2.50;;;;;;;12.16;95.56;102185.75;5090433;28;20219;-71
2022/07/11 02:04:41;;;;;;;3.07;2.20;;;;;;;12.17;95.38;102187.50;5072323;28;20657;-70
2022/07/11 02:07:06;;;;;;;3.20;2.40;;;;;;;12.18;95.74;102185.81;5071998;28;20189;-71
2022/07/11 02:09:32;;;;;;;7.27;2.50;;;;;;;12.17;96.25;102186.66;5090330;28;20193;-70
2022/07/11 02:11:57;;;;;;;8.27;2.30;;;;;;;12.18;96.17;102186.69;5071506;28;20248;-70
2022/07/11 02:14:23;;;;;;;5.27;2.50;;;;;;;12.17;96.66;102189.22;5072199;28;20279;-70
2022/07/11 02:16:48;;;;;;;3.80;2.07;;;;;;;12.15;96.04;102188.25;5071444;28;20240;-71
2022/07/11 02:19:14;;;;;;;4.77;2.20;;;;;;;12.09;96.27;102188.94;5090004;28;20208;-70
2022/07/11 02:21:39;;;;;;;6.10;2.63;;;;;;;12.07;96.33;102194.84;5090175;28;20684;-70
2022/07/11 02:24:05;;;;;;;3.90;2.27;;;;;;;12.00;96.14;102188.63;5089977;28;20295;-70
2022/07/11 02:26:30;;;;;;;4.07;2.10;;;;;;;11.97;95.83;102190.19;5071535;28;20184;-70
2022/07/11 02:28:57;;;;;;;3.77;2.20;;;;;;;11.96;95.52;102188.44;5089677;28;20200;-70
2022/07/11 02:31:22;;;;;;;3.87;2.13;;;;;;;11.96;94.85;102193.59;5090072;28;20572;-70
2022/07/11 02:33:48;;;;;;;3.87;2.17;;;;;;;11.98;95.19;102192.81;5071672;28;20212;-70
2022/07/11 02:36:13;;;;;;;4.67;2.30;;;;;;;12.02;95.09;102194.69;5089883;28;20219;-70
2022/07/11 02:38:39;;;;;;;4.27;2.10;;;;;;;12.06;95.04;102193.09;5088450;28;20212;-70
2022/07/11 02:41:05;;;;;;;4.40;2.03;;;;;;;12.07;95.28;102193.13;5091751;28;20208;-70
2022/07/11 02:43:30;;;;;;;7.00;2.40;;;;;;;12.10;95.25;102194.94;5096167;28;20219;-70
2022/07/11 02:45:56;;;;;;;6.43;2.27;;;;;;;12.10;95.47;102195.84;5071479;28;20197;-70
2022/07/11 02:48:21;;;;;;;3.10;1.93;;;;;;;12.10;95.30;102197.50;5089543;28;20218;-70
2022/07/11 02:50:47;;;;;;;5.30;2.40;;;;;;;12.10;95.35;102200.06;5089898;28;20190;-70
2022/07/11 02:53:13;;;;;;;4.43;2.43;;;;;;;11.97;95.18;102196.22;5089258;28;20531;-70
2022/07/11 02:55:39;;;;;;;6.23;2.43;;;;;;;11.92;95.45;102202.00;5089273;28;20221;-70
2022/07/11 02:58:04;;;;;;;3.63;2.23;;;;;;;11.85;95.11;102206.03;5089241;28;20220;-70
2022/07/11 03:00:30;;;;;;;2.97;2.13;;;;;;;11.80;94.71;102199.88;5089786;28;20192;-70
2022/07/11 03:02:55;;;;;;;4.67;2.33;;;;;;;11.73;94.85;102204.72;5089435;28;20204;-70
2022/07/11 03:05:21;;;;;;;3.93;2.00;;;;;;;11.70;94.31;102204.63;5089321;28;20190;-70
2022/07/11 03:07:46;;;;;;;5.63;2.40;;;;;;;11.64;93.59;102209.50;5070668;28;20556;-70
2022/07/11 03:10:12;;;;;;;5.17;2.20;;;;;;;11.60;93.40;102199.94;5089781;28;20951;-70
2022/07/11 03:12:38;;;;;;;2.80;1.90;;;;;;;11.57;93.58;102204.97;5089586;28;20662;-70
2022/07/11 03:15:04;;;;;;;3.47;2.10;;;;;;;11.54;93.21;102195.47;5088754;28;20203;-70
2022/07/11 03:17:30;;;;;;;3.30;2.40;;;;;;;11.46;92.62;102202.00;5088945;28;20212;-70
2022/07/11 03:19:56;;;;;;;6.33;2.33;;;;;;;11.45;92.56;102199.34;5089177;28;20318;-70
2022/07/11 03:22:23;;;;;;;4.30;2.23;;;;;;;11.46;92.00;102208.78;5089140;28;20184;-70
2022/07/11 03:24:50;;;;;;;2.67;1.90;;;;;;;11.40;92.25;102209.47;5089230;28;20181;-70
2022/07/11 03:27:16;;;;;;;2.93;2.03;;;;;;;11.36;92.10;102211.84;5088947;28;20840;-70
2022/07/11 03:29:42;;;;;;;3.17;1.97;;;;;;;11.36;92.35;102210.16;5089202;28;20211;-70
2022/07/11 03:32:08;;;;;;;3.70;1.90;;;;;;;11.37;92.38;102213.56;5089156;28;20221;-70
2022/07/11 03:34:34;;;;;;;3.70;2.57;;;;;;;11.37;92.17;102222.16;5070603;28;20191;-70
2022/07/11 03:37:00;;;;;;;4.37;2.97;;;;;;;11.40;92.64;102219.72;5088616;28;20204;-71
2022/07/11 03:39:25;;;;;;;3.97;2.60;;;;;;;11.39;92.39;102220.50;5087317;28;20188;-70
2022/07/11 03:41:51;;;;;;;3.53;2.80;;;;;;;11.37;92.63;102221.28;5098317;28;20177;-70
2022/07/11 03:44:16;;;;;;;5.23;2.57;;;;;;;11.41;92.92;102233.41;5071074;28;20192;-70
2022/07/11 03:46:42;;;;;;;5.87;2.30;;;;;;;11.37;92.91;102228.97;5070773;28;20238;-70
2022/07/11 03:49:08;;;;;;;3.97;2.07;;;;;;;11.44;92.51;102221.59;5104699;28;20211;-70
2022/07/11 03:51:34;;;;;;;3.80;2.77;;;;;;;11.50;93.08;102226.06;5089205;28;20191;-70
2022/07/11 03:54:00;;;;;;;5.23;2.13;;;;;;;11.52;93.72;102219.31;5072321;28;20181;-70
2022/07/11 03:56:25;;;;;;;5.03;2.90;;;;;;;11.60;94.16;102220.47;5100911;28;20183;-70
2022/07/11 03:58:52;;;;;;;5.77;2.60;;;;;;;11.62;94.62;102221.44;5106566;28;20212;-70
2022/07/11 04:01:19;;;;;;;6.93;2.33;;;;;;;11.63;94.54;102221.50;5089154;28;20776;-70
2022/07/11 04:03:45;;;;;;;3.03;2.27;;;;;;;11.64;94.69;102220.66;5089040;28;20195;-70
2022/07/11 04:06:11;;;;;;;2.60;2.27;;;;;;;11.68;94.72;102221.66;5089049;28;20180;-70
2022/07/11 04:08:36;;;;;;;6.97;2.73;;;;;;;11.71;94.73;102221.78;5088838;28;20592;-70
2022/07/11 04:11:01;;;;;;;4.23;2.43;;;;;;;11.74;95.04;102221.84;5089059;28;20686;-70
2022/07/11 04:13:27;;;;;;;4.13;2.50;;;;;;;11.76;95.28;102218.53;5089026;28;20199;-70
2022/07/11 04:15:52;;;;;;;3.07;2.20;;;;;;;11.76;94.77;102221.09;5088989;28;20188;-70
2022/07/11 04:18:18;;;;;;;6.10;2.70;;;;;;;11.81;94.82;102217.03;5088612;28;20231;-70
2022/07/11 04:20:43;;;;;;;4.53;2.93;;;;;;;11.84;95.05;102218.84;5088835;28;20187;-70
2022/07/11 04:23:08;;;;;;;4.00;2.40;;;;;;;11.89;94.50;102222.44;5089284;28;20189;-70
2022/07/11 04:25:34;;;;;;;3.67;2.57;;;;;;;11.96;94.50;102219.25;5089212;28;20192;-70
2022/07/11 04:28:01;;;;;;;5.30;2.03;;;;;;;12.05;94.53;102223.03;5092091;28;20200;-70
2022/07/11 04:30:27;;;;;;;4.90;2.53;;;;;;;12.14;94.60;102219.91;5092287;28;20198;-70
2022/07/11 04:32:52;;;;;;;4.40;2.47;;;;;;;12.17;94.76;102218.31;5092510;28;20811;-70
2022/07/11 04:35:18;;;;;;;3.90;2.50;;;;;;;12.26;95.15;102217.78;5092330;28;20185;-71
2022/07/11 04:37:44;;;;;;;6.03;2.70;;;;;;;12.38;95.01;102221.63;5073771;28;20589;-70
2022/07/11 04:40:10;;;;;;;6.83;2.63;;;;;;;12.45;94.75;102217.59;5103999;28;20218;-71
2022/07/11 04:42:35;;;;;;;5.47;2.40;;;;;;;12.49;94.56;102222.88;5100575;28;20188;-71
2022/07/11 04:45:01;;;;;;;7.90;2.70;;;;;;;12.54;94.66;102221.31;5073936;28;20655;-71
2022/07/11 04:47:26;;;;;;;6.73;2.27;;;;;;;12.64;94.71;102223.41;5092287;28;20192;-71
2022/07/11 04:49:52;;;;;;;4.03;2.47;;;;;;;12.73;93.59;102222.81;5092134;28;20231;-70
2022/07/11 04:52:17;;;;;;;7.43;2.97;;;;;;;12.80;94.30;102220.50;5092289;28;20188;-70
2022/07/11 04:54:43;;;;;;;4.30;2.60;;;;;;;12.87;93.83;102219.00;5092120;28;20210;-70
2022/07/11 04:57:09;;;;;;;7.80;2.87;;;;;;;12.94;93.29;102215.78;5091628;28;20224;-69
2022/07/11 04:59:34;;;;;;;6.37;2.70;;;;;;;13.03;93.03;102215.25;5091881;28;20572;-70
2022/07/11 05:02:00;;;;;;;4.17;2.63;;;;;;;13.12;93.02;102218.97;5091953;28;20185;-70
2022/07/11 05:04:25;;;;;;;6.60;2.97;;;;;;;13.23;92.96;102216.72;5086124;28;20180;-71
2022/07/11 05:06:50;;;;;;;5.60;2.50;;;;;;;13.33;91.48;102217.06;5091588;28;20280;-70
2022/07/11 05:09:16;;;;;;;9.07;2.90;;;;;;;13.46;91.28;102228.59;5091754;28;20204;-70
2022/07/11 05:11:41;;;;;;;8.17;3.17;;;;;;;13.56;89.91;102221.19;5091881;28;20249;-70
2022/07/11 05:14:07;;;;;;;7.23;2.60;;;;;;;13.66;89.01;102219.75;5073484;28;20275;-70
2022/07/11 05:16:32;;;;;;;6.20;1.90;;;;;;;13.76;88.85;102221.78;5091513;28;20224;-70
2022/07/11 05:18:58;;;;;;;8.47;2.20;;;;;;;13.90;88.18;102220.47;5091431;28;20216;-70
2022/07/11 05:21:23;;;;;;;7.27;2.07;;;;;;;14.00;87.04;102214.72;5091593;28;20295;-70
2022/07/11 05:23:50;;;;;;;6.23;2.33;;;;;;;14.12;87.44;102220.19;5091615;28;20610;-70
2022/07/11 05:26:16;;;;;;;4.73;1.70;;;;;;;14.29;87.29;102226.72;5073206;28;20183;-71
2022/07/11 05:28:42;;;;;;;6.77;2.20;;;;;;;14.33;85.70;102220.81;5091126;28;20608;-70
2022/07/11 05:31:07;;;;;;;7.87;2.47;;;;;;;14.49;85.65;102228.97;5073442;28;20900;-70
2022/07/11 05:33:34;;;;;;;7.10;2.23;;;;;;;14.58;85.03;102230.91;5091464;28;20185;-70
2022/07/11 05:36:00;;;;;;;7.63;2.17;;;;;;;14.71;84.62;102225.22;5092873;28;20547;-71
2022/07/11 05:38:26;;;;;;;9.80;2.30;;;;;;;14.83;84.24;102228.13;5102600;28;20211;-70
2022/07/11 05:40:52;;;;;;;6.13;2.07;;;;;;;14.93;83.38;102235.25;5097584;28;20770;-71
2022/07/11 05:43:17;;;;;;;6.67;2.33;;;;;;;15.04;82.27;102231.19;5095069;28;20192;-70
2022/07/11 05:45:43;;;;;;;6.20;1.93;;;;;;;15.16;81.64;102231.50;5103059;28;20273;-70
2022/07/11 05:48:09;;;;;;;5.90;2.00;;;;;;;15.18;79.96;102224.66;5111180;28;20204;-70
2022/07/11 05:50:35;;;;;;;4.33;1.67;;;;;;;15.26;79.44;102233.44;5111498;28;20188;-70
2022/07/11 05:53:02;;;;;;;6.10;2.20;;;;;;;15.38;80.01;102220.84;5111358;28;20192;-70
2022/07/11 05:55:28;;;;;;;9.03;2.50;;;;;;;15.51;78.89;102225.44;5111598;28;20898;-70
2022/07/11 05:57:53;;;;;;;7.27;2.47;;;;;;;15.66;78.85;102229.19;5111013;28;20592;-70
2022/07/11 06:00:21;;;;;;;5.57;1.77;;;;;;;15.76;78.27;102230.28;5111349;28;20183;-71
2022/07/11 06:02:47;;;;;;;7.20;1.90;;;;;;;15.85;76.85;102233.06;5111287;28;20274;-71
2022/07/11 06:05:13;;;;;;;6.37;2.03;;;;;;;16.01;77.45;102227.34;5111343;28;20329;-71
2022/07/11 06:10:22;;;;;;;6.47;1.60;;;;;;;16.15;76.39;102229.34;5111472;28;20183;-71
2022/07/11 06:12:47;;;;;;;6.43;1.90;;;;;;;16.32;76.30;102232.25;5111386;28;20400;-70
2022/07/11 06:15:13;;;;;;;3.80;1.60;;;;;;;16.44;75.41;102235.97;5111272;28;20538;-71
2022/07/11 06:17:38;;;;;;;5.63;2.27;;;;;;;16.49;74.83;102234.31;5092432;28;20271;-70
2022/07/11 06:20:04;;;;;;;5.60;2.40;;;;;;;16.62;73.64;102228.53;5111016;28;20238;-71
2022/07/11 06:22:30;;;;;;;4.83;1.63;;;;;;;16.77;73.24;102233.09;5092396;28;20184;-70
2022/07/11 06:24:55;;;;;;;3.27;1.57;;;;;;;16.89;72.35;102233.28;5110732;28;20187;-71
2022/07/11 06:27:21;;;;;;;6.13;1.40;;;;;;;17.07;73.50;102233.56;5110433;28;20202;-71
2022/07/11 06:29:46;;;;;;;4.87;1.50;;;;;;;17.12;70.83;102232.78;5110690;28;20175;-71
2022/07/11 06:32:12;;;;;;;5.40;1.60;;;;;;;17.23;71.13;102233.81;5110500;28;20198;-70
2022/07/11 06:34:38;;;;;;;6.63;1.53;;;;;;;17.42;70.39;102235.88;5092245;28;20676;-70
2022/07/11 06:37:04;;;;;;;5.30;1.60;;;;;;;17.52;69.93;102237.75;5082612;28;20204;-71
2022/07/11 06:39:29;;;;;;;4.73;1.30;;;;;;;17.65;70.22;102234.47;5094551;28;20545;-71
2022/07/11 06:41:55;;;;;;;4.73;1.40;;;;;;;17.70;68.62;102231.91;5098195;28;20214;-71
2022/07/11 06:44:20;;;;;;;7.13;1.50;;;;;;;17.95;68.92;102228.75;5071336;28;20189;-71
2022/07/11 06:46:45;;;;;;;4.67;1.40;;;;;;;17.99;67.84;102230.53;5089790;28;20242;-71
2022/07/11 06:49:12;;;;;;;6.33;1.37;;;;;;;18.12;67.68;102232.41;5070821;28;20697;-70
2022/07/11 06:51:39;;;;;;;3.00;1.30;;;;;;;18.28;67.06;102237.78;5089763;28;20844;-71
2022/07/11 06:54:04;;;;;;;4.27;1.40;;;;;;;18.42;66.46;102232.78;5089388;28;20295;-71
2022/07/11 06:56:30;;;;;;;4.10;1.37;;;;;;;18.79;65.51;102232.25;5089249;28;20286;-71
2022/07/11 06:58:55;;;;;;;3.50;1.20;;;;;;;19.09;65.30;102230.75;5089438;28;20216;-70
2022/07/11 07:01:21;;;;;;;3.57;1.23;;;;;;;19.20;64.63;102233.44;5088983;28;20230;-71
2022/07/11 07:03:46;;;;;;;3.47;1.07;;;;;;;19.34;62.96;102224.88;5089837;28;20192;-71
2022/07/11 07:06:12;;;;;;;3.40;1.20;;;;;;;19.03;63.16;102224.66;5089352;28;20180;-71
2022/07/11 07:08:38;;;;;;;3.47;1.30;;;;;;;19.10;63.08;102229.88;5089360;28;20261;-71
2022/07/11 07:11:03;;;;;;;2.47;1.00;;;;;;;18.77;64.53;102234.84;5089666;28;20191;-70
2022/07/11 07:13:29;;;;;;;3.97;1.00;;;;;;;18.36;64.05;102230.09;5089405;28;20247;-70
2022/07/11 07:15:56;;;;;;;5.93;1.50;;;;;;;18.76;63.56;102233.09;5089548;28;20547;-72
2022/07/11 07:18:23;;;;;;;3.33;1.00;;;;;;;18.97;63.07;102235.00;5089124;28;20222;-71
2022/07/11 07:20:51;;;;;;;3.97;1.13;;;;;;;18.95;63.95;102236.69;5087940;28;20220;-71
2022/07/11 07:23:17;;;;;;;4.57;1.00;;;;;;;19.15;62.48;102233.38;5076213;28;20189;-71
2022/07/11 07:25:43;;;;;;;3.80;1.43;;;;;;;19.12;62.14;102237.69;5087176;28;20195;-71
2022/07/11 07:28:08;;;;;;;3.73;1.10;;;;;;;19.04;62.91;102236.78;5088299;28;20285;-71
2022/07/11 07:30:33;;;;;;;4.47;0.97;;;;;;;19.30;61.93;102237.84;5089132;28;20229;-71
2022/07/11 07:33:00;;;;;;;3.30;1.10;;;;;;;19.68;61.64;102234.59;5070695;28;20661;-71
2022/07/11 07:35:26;;;;;;;2.83;0.97;;;;;;;20.07;59.61;102231.25;5088755;28;20199;-71
2022/07/11 07:37:52;;;;;;;3.43;1.00;;;;;;;20.41;58.00;102227.91;5088673;28;20270;-71
2022/07/11 07:40:18;;;;;;;2.63;0.80;;;;;;;20.57;58.18;102227.94;5089063;28;20200;-71
2022/07/11 07:42:43;;;;;;;2.67;1.10;;;;;;;20.86;56.22;102230.56;5089081;28;20198;-71
2022/07/11 07:45:09;;;;;;;2.10;1.00;;;;;;;20.93;57.82;102232.31;5070873;28;20192;-71
2022/07/11 07:47:36;;;;;;;3.07;0.87;;;;;;;21.12;54.96;102223.59;5089035;28;20215;-71
2022/07/11 07:50:02;;;;;;;2.87;1.00;;;;;;;21.43;55.91;102220.91;5053667;28;20176;-71
2022/07/11 07:52:27;;;;;;;1.30;0.87;;;;;;;20.63;57.02;102220.13;5088967;28;20233;-71
2022/07/11 07:54:53;;;;;;;1.30;0.80;;;;;;;20.41;57.11;102231.38;5089290;28;20196;-71
2022/07/11 07:57:18;;;;;;;2.60;0.80;;;;;;;20.48;56.54;102227.03;5088672;28;20306;-71
2022/07/11 07:59:44;;;;;;;2.93;0.87;;;;;;;21.10;57.09;102223.59;5089373;28;20215;-71
2022/07/11 08:02:09;;;;;;;2.90;0.93;;;;;;;21.36;55.38;102220.94;5092863;28;20666;-71
2022/07/11 08:04:35;;;;;;;2.93;1.17;;;;;;;21.07;55.89;102220.13;5092595;28;20199;-71
2022/07/11 08:07:00;;;;;;;2.10;1.10;;;;;;;20.48;57.05;102221.84;5074521;28;20188;-71
2022/07/11 08:09:26;;;;;;;2.83;0.90;;;;;;;21.02;55.63;102219.28;5093074;28;20225;-71
2022/07/11 08:11:51;;;;;;;2.50;0.87;;;;;;;20.47;56.25;102217.50;5092630;28;20188;-71
2022/07/11 08:14:17;;;;;;;2.90;0.90;;;;;;;20.56;56.21;102215.78;5092555;28;20268;-71
2022/07/11 08:16:43;;;;;;;5.87;1.37;;;;;;;20.80;55.22;102215.78;5092308;28;20204;-71
2022/07/11 08:19:09;;;;;;;2.30;0.77;;;;;;;21.16;54.77;102220.13;5073796;28;20223;-71
2022/07/11 08:21:35;;;;;;;2.23;0.77;;;;;;;21.42;53.55;102218.34;5092257;28;20579;-71
2022/07/11 08:24:01;;;;;;;2.93;0.97;;;;;;;21.61;53.04;102210.44;5092560;28;20241;-71
2022/07/11 08:26:28;;;;;;;4.50;0.90;;;;;;;21.75;52.70;102219.09;5090501;28;20223;-71
2022/07/11 08:28:53;;;;;;;2.60;0.97;;;;;;;21.23;52.26;102220.09;5073305;28;20317;-72
2022/07/11 08:31:19;;;;;;;1.70;0.83;;;;;;;21.80;51.73;102216.47;5091095;28;20612;-72
2022/07/11 08:33:44;;;;;;;2.10;1.00;;;;;;;22.04;51.22;102224.19;5092554;28;20179;-71
2022/07/11 08:36:10;;;;;;;3.43;0.90;;;;;;;21.66;53.40;102223.47;5089187;28;20253;-71
2022/07/11 08:38:37;;;;;;;3.00;0.93;;;;;;;21.47;53.55;102229.63;5090393;28;20235;-71
2022/07/11 08:41:03;;;;;;;5.73;1.20;;;;;;;21.64;53.00;102233.00;5079657;28;20230;-71
2022/07/11 08:43:30;;;;;;;3.63;1.20;;;;;;;22.09;52.56;102223.28;5100271;28;20266;-71
2022/07/11 08:45:56;;;;;;;4.80;1.53;;;;;;;21.99;51.56;102225.94;5095257;28;20184;-71
2022/07/11 08:48:23;;;;;;;3.23;0.87;;;;;;;22.11;50.65;102218.06;5091382;28;20208;-71
2022/07/11 08:50:52;;;;;;;3.90;0.90;;;;;;;22.35;50.31;102212.69;5098744;28;20222;-72
2022/07/11 08:53:17;;;;;;;2.13;0.97;;;;;;;22.02;50.38;102216.34;5091287;28;20218;-71
2022/07/11 08:55:43;;;;;;;4.37;1.10;;;;;;;22.68;51.27;102215.06;5073535;28;20180;-71
2022/07/11 08:58:09;;;;;;;5.70;1.20;;;;;;;22.87;48.53;102214.03;5096951;28;20234;-71
2022/07/11 09:00:38;;;;;;;1.63;0.77;;;;;;;23.09;48.60;102212.06;5096163;28;20189;-71
2022/07/11 09:03:05;;;;;;;4.10;0.80;;;;;;;23.50;48.20;102202.06;5090494;28;20231;-71
2022/07/11 09:05:31;;;;;;;1.35;0.80;;;;;;;23.74;46.45;102209.63;5091570;28;20261;-71
2022/07/11 09:07:57;;;;;;;1.98;0.90;;;;;;;24.01;44.86;102206.69;5090605;28;20203;-71
2022/07/11 09:10:23;;;;;;;2.67;1.48;;;;;;;24.10;47.14;102204.81;5091421;28;20176;-72
2022/07/11 09:12:59;;;;;;;1.35;0.70;;;;;;;24.22;43.53;102203.75;5090551;28;20611;-71
2022/07/11 09:15:45;;;;;;;2.53;0.90;;;;;;;24.21;44.88;102202.88;5094217;28;20176;-71
2022/07/11 09:18:34;;;;;;;3.22;0.90;;;;;;;23.78;46.53;102204.34;5072598;28;20244;-72
2022/07/11 09:26:37;;;;;;;1.73;0.82;;;;;;;24.27;44.56;102200.16;5091181;28;20682;-72
2022/07/11 09:29:13;;;;;;;2.33;0.82;;;;;;;24.48;44.87;102210.31;5091197;28;20197;-71
2022/07/11 09:31:41;;;;;;;2.35;0.80;;;;;;;24.68;43.12;102208.28;5091210;28;20641;-72
2022/07/11 09:34:11;;;;;;;3.25;0.90;;;;;;;24.68;43.11;102202.19;5091158;28;20184;-72
2022/07/11 09:36:40;;;;;;;2.42;0.80;;;;;;;25.07;42.65;102206.72;5099423;28;20226;-71
2022/07/11 09:39:08;;;;;;;3.25;0.88;;;;;;;25.01;42.02;102205.06;5109595;28;20262;-72
2022/07/11 09:41:35;;;;;;;3.03;0.88;;;;;;;25.21;43.66;102205.59;5083602;28;20255;-72
2022/07/11 09:44:19;;;;;;;1.38;1.08;;;;;;;24.70;43.28;102208.25;5092673;28;20208;-72
2022/07/11 09:46:47;;;;;;;1.33;0.77;;;;;;;25.22;44.63;102209.94;5090694;28;20602;-71
2022/07/11 09:49:15;;;;;;;2.67;0.90;;;;;;;25.49;43.39;102204.19;5072171;28;20231;-72
2022/07/11 09:51:41;;;;;;;4.28;1.00;;;;;;;25.51;42.21;102201.53;5090753;28;20192;-72
2022/07/11 09:54:08;;;;;;;2.13;0.90;;;;;;;25.73;41.79;102205.41;5090698;28;20283;-72
2022/07/11 09:56:42;;;;;;;2.45;0.93;;;;;;;25.76;40.94;102195.75;5090447;28;20184;-72
2022/07/11 09:59:12;;;;;;;1.58;1.00;;;;;;;25.73;41.83;102200.16;5091040;28;20216;-71
2022/07/11 10:01:39;;;;;;;4.28;1.15;;;;;;;25.91;42.12;102208.53;5102583;28;20187;-72
2022/07/11 10:04:07;;;;;;;2.15;1.00;;;;;;;26.21;40.67;102197.38;5111213;28;20259;-72
2022/07/11 10:06:33;;;;;;;1.55;0.98;;;;;;;25.80;40.83;102193.91;5073618;28;20184;-72
2022/07/11 10:08:58;;;;;;;1.38;0.70;;;;;;;25.84;40.60;102192.94;5090470;28;20671;-72
2022/07/11 10:11:24;;;;;;;1.30;0.77;;;;;;;25.81;40.20;102193.88;5090205;28;20716;-72
2022/07/11 10:13:50;;;;;;;2.03;0.70;;;;;;;25.68;40.27;102191.53;5090335;28;20230;-72
2022/07/11 10:16:24;;;;;;;2.97;0.82;;;;;;;25.96;40.30;102182.19;5090127;28;20203;-72
2022/07/11 10:19:16;;;;;;;1.40;0.77;;;;;;;25.81;39.90;102188.63;5090221;28;20298;-72
2022/07/11 10:22:11;;;;;;;2.08;0.80;;;;;;;25.02;42.66;102195.44;5081762;28;20181;-72
2022/07/11 10:24:40;;;;;;;1.67;0.70;;;;;;;24.84;42.03;102194.03;5065814;28;20279;-72
2022/07/11 10:27:24;;;;;;;2.45;0.90;;;;;;;25.58;41.65;102192.63;5069675;28;20829;-72
2022/07/11 10:29:54;;;;;;;1.27;0.65;;;;;;;26.07;40.08;102201.22;5070183;28;20730;-72
2022/07/11 10:32:19;;;;;;;2.55;0.80;;;;;;;26.44;40.53;102189.78;5087037;28;20187;-70
2022/07/11 10:34:47;;;;;;;1.83;0.70;;;;;;;26.23;39.86;102197.31;5083712;28;20183;-72
2022/07/11 10:37:13;;;;;;;2.60;0.77;;;;;;;26.20;40.31;102200.88;5110186;28;20187;-72
2022/07/11 10:39:46;;;;;;;1.05;0.77;;;;;;;26.13;41.43;102203.69;5110414;28;20229;-72
2022/07/11 10:42:20;;;;;;;2.20;0.82;;;;;;;26.09;40.70;102202.91;5110129;28;20168;-72
2022/07/11 10:44:54;;;;;;;0.80;0.80;;;;;;;26.86;38.98;102198.41;5110112;28;20182;-72
2022/07/11 10:47:36;;;;;;;3.20;0.73;;;;;;;26.64;38.82;102198.09;5086119;28;20203;-72
2022/07/11 10:50:07;;;;;;;1.58;0.82;;;;;;;25.89;39.68;102204.22;5100875;28;20326;-72
2022/07/11 10:52:36;;;;;;;1.05;0.70;;;;;;;26.22;39.50;102207.00;5110114;28;20180;-73
2022/07/11 10:55:18;;;;;;;1.58;0.77;;;;;;;26.63;40.09;102195.50;5107826;28;20652;-72
2022/07/11 10:58:00;;;;;;;2.80;0.90;;;;;;;26.09;40.41;102194.16;5089456;28;20212;-72
2022/07/11 11:00:27;;;;;;;2.25;0.70;;;;;;;26.25;38.98;102199.00;5097912;28;20207;-72
2022/07/11 11:03:03;;;;;;;1.75;0.77;;;;;;;25.83;41.33;102207.81;5106899;28;20258;-72
2022/07/11 11:05:48;;;;;;;1.50;0.73;;;;;;;25.30;41.84;102200.19;5109882;28;20195;-72
2022/07/11 11:08:35;;;;;;;1.67;0.80;;;;;;;25.08;43.40;102201.44;5109718;28;20838;-72
2022/07/11 11:11:21;;;;;;;1.95;0.90;;;;;;;24.87;41.95;102196.59;5109839;28;20183;-72
2022/07/11 11:14:15;;;;;;;0.65;0.60;;;;;;;25.66;40.24;102196.84;5067503;28;20200;-72
2022/07/11 11:16:41;;;;;;;1.13;0.70;;;;;;;26.21;40.81;102199.13;5109383;28;20187;-72
2022/07/11 11:19:07;;;;;;;2.50;0.80;;;;;;;26.53;39.16;102186.09;5109685;28;20696;-72
2022/07/11 11:21:32;;;;;;;1.58;0.80;;;;;;;26.36;39.78;102181.25;5109661;28;20187;-72
2022/07/11 11:24:02;;;;;;;2.13;0.70;;;;;;;26.36;41.26;102189.13;5109880;28;20194;-70
2022/07/11 11:26:46;;;;;;;2.25;0.90;;;;;;;25.52;42.60;102198.00;5090778;28;20700;-71
2022/07/11 11:29:18;;;;;;;3.95;1.10;;;;;;;24.93;43.92;102206.09;5109693;28;20830;-72
2022/07/11 11:31:49;;;;;;;1.80;1.00;;;;;;;24.98;44.15;102202.53;5092476;28;20192;-72